Pagrindinis puslapis
METAR-TAF:

METAR-TAF

Oro uostai :

Zygenas, Vokietija

platuma: 50-42-28N, ilguma: 008-04-59E, Aukštis: 602 m

Dabartinis oras

Ataskaita buvo paskelbta 6 valandos ir 40 minutes, ne 18:20 UTC
Vėjas 14 kt iš Šiaurės
Temperatūra 7°C
Drėgmė 53%
Slėgis 1019 hPa
Matomumas 10 km arba daugiau
nėra debesų žemiau 1500 m ir nėra kamuolinių lietaus debesų

METAR: EDGS 281820Z 35014KT CAVOK 07/M02 Q1019

Laikas: 03:00 (01:00 UTC)

Prognozė

Ataskaita buvo paskelbta 8 valandos ir 0 minutes, ne 17:00 UTC
Prognozė galioja nuo 28 metu 18 UTC su 29 metu 03 UTC
Vėjas 12 kt iš Šiaurės
Matomumas 10 km arba daugiau
nėra debesų žemiau 1500 m ir nėra kamuolinių lietaus debesų
Tapsmas
nuo 28 metu 22 UTC su 29 metu 02 UTC
Su prošvaistėmis ne aukštis 1000 ft

TAF: EDGS 281700Z 2818/2903 35012KT CAVOK BECMG 2822/2902 BKN010

Orai ataskaitas ir orų prognozės (METAR, TAF).

turimą stotys yra geltonos ir raudonos taškus žemėlapyje.

Perkelti pele per norėdami pamatyti stoties vardą.

Tada spustelėkite, norėdami matyti oro stebėjimo ir prognozės.

Norėdami pakeisti žemėlapį: spustelėkite ant žalios mygtukų su juodo kryžiaus žemyn,; žalią mygtuką su brūkšneliu, jei norite nutolinti; arba žalių rodyklių gretimoms žemėlapius.


METAR-TAF: